EW3693 Weather Reports


Display with metric or nautical units.
time (UTC)temp
F
wind
direction
speed
MPH
gust
MPH
rain 1hr
in
rain 24hr
in
rain mn
in
humidity
%
barometer
mb
20181211151025 39 337 13.0 18.0 0.00 0.01 0.01 89 1015.6
20181211150025 39 315 10.0 14.0 0.00 0.01 0.01 89 1015.7
20181211145025 40 337 12.0 17.0 0.00 0.01 0.01 89 1015.6
20181211144025 40 337 10.0 16.0 0.00 0.01 0.01 88 1015.6
20181211143025 40 337 10.0 15.0 0.00 0.01 0.01 88 1015.4
20181211142025 40 337 9.0 13.0 0.00 0.01 0.01 88 1015.3
20181211141025 39 315 10.0 15.0 0.00 0.01 0.01 88 1015.3
20181211140026 39 337 11.0 20.0 0.00 0.01 0.01 88 1015.1
20181211135025 39 337 12.0 15.0 0.00 0.01 0.01 88 1015.1
20181211134026 40 337 12.0 17.0 0.00 0.01 0.01 89 1015.0
20181211133025 40 337 12.0 18.0 0.00 0.01 0.01 91 1014.9
20181211132025 40 337 14.0 21.0 0.00 0.01 0.01 92 1014.9
20181211131025 40 337 11.0 18.0 0.00 0.01 0.01 92 1014.8
20181211130025 40 315 9.0 12.0 0.00 0.01 0.01 93 1014.6
20181211125025 40 315 9.0 12.0 0.00 0.01 0.01 93 1014.5
20181211124025 40 315 10.0 14.0 0.00 0.01 0.01 93 1014.5
20181211123025 40 315 9.0 15.0 0.00 0.01 0.01 93 1014.5
20181211122025 40 337 10.0 15.0 0.00 0.01 0.01 94 1014.3
20181211121025 39 315 9.0 13.0 0.00 0.01 0.01 94 1014.2
20181211120025 39 315 11.0 14.0 0.00 0.01 0.01 94 1014.3
20181211115027 39 315 9.0 14.0 0.00 0.01 0.01 94 1014.0
20181211114026 39 315 9.0 12.0 0.00 0.01 0.01 94 1014.0
20181211113027 38 292 13.0 16.0 0.00 0.01 0.01 94 1013.8
20181211112027 38 292 11.0 16.0 0.00 0.01 0.01 94 1013.7
20181211111027 38 292 12.0 15.0 0.00 0.01 0.01 94 1013.6
20181211110026 38 292 12.0 15.0 0.00 0.01 0.01 94 1013.8
20181211105026 38 292 12.0 16.0 0.00 0.01 0.01 93 1013.6
20181211104027 38 315 13.0 19.0 0.01 0.01 0.01 93 1013.6
20181211103026 38 315 12.0 16.0 0.01 0.01 0.01 93 1013.6
20181211102027 38 292 12.0 19.0 0.00 0.00 0.00 93 1013.5
20181211101027 38 292 11.0 16.0 0.00 0.00 0.00 93 1013.5
20181211100026 38 292 11.0 14.0 0.00 0.00 0.00 92 1013.4
20181211095027 38 292 12.0 15.0 0.00 0.00 0.00 91 1013.4
20181211094027 38 292 13.0 17.0 0.00 0.00 0.00 90 1013.3
20181211093027 38 292 12.0 15.0 0.00 0.00 0.00 89 1013.3
20181211092027 38 292 11.0 16.0 0.00 0.00 0.00 89 1013.0
20181211091026 38 292 12.0 16.0 0.00 0.00 0.00 88 1012.9
20181211090026 38 292 12.0 16.0 0.00 0.00 0.00 88 1012.8
20181211085027 38 292 12.0 17.0 0.00 0.00 0.00 88 1012.7
20181211084026 38 292 12.0 17.0 0.00 0.00 0.00 88 1012.5
20181211083026 38 292 13.0 17.0 0.00 0.00 0.00 88 1012.4
20181211082027 38 292 12.0 15.0 0.00 0.00 0.00 88 1012.3
20181211081032 38 292 13.0 17.0 0.00 0.00 0.00 88 1012.3
20181211080026 38 292 13.0 17.0 0.00 0.00 0.00 88 1012.2
20181211075027 38 292 13.0 17.0 0.00 0.00 0.00 88 1012.2
20181211074026 38 292 14.0 20.0 0.00 0.00 0.00 88 1012.1
20181211073026 38 292 14.0 17.0 0.00 0.00 0.00 88 1012.0
20181211072027 38 292 13.0 18.0 0.00 0.00 0.00 88 1011.9
20181211071026 38 292 13.0 18.0 0.00 0.00 0.00 87 1011.9
20181211070026 38 292 12.0 17.0 0.00 0.00 0.00 87 1011.7
20181211065026 38 292 12.0 16.0 0.00 0.00 0.00 87 1011.6
20181211064026 38 292 11.0 15.0 0.00 0.00 0.00 87 1011.4
20181211063026 38 292 11.0 16.0 0.00 0.00 0.00 87 1011.4
20181211062027 38 292 12.0 16.0 0.00 0.00 0.00 87 1011.2
20181211061026 39 292 14.0 18.0 0.00 0.00 0.00 86 1011.2
20181211060026 39 315 14.0 19.0 0.00 0.00 0.00 86 1011.0
20181211055026 39 292 16.0 22.0 0.00 0.00 0.00 86 1010.9
20181211054025 38 292 14.0 21.0 0.00 0.00 0.00 86 1010.7
20181211053026 38 292 14.0 19.0 0.00 0.00 0.00 86 1010.7
20181211052026 38 292 14.0 18.0 0.00 0.00 0.00 86 1010.7
20181211051026 38 292 15.0 21.0 0.00 0.00 0.00 86 1010.3
20181211050027 38 292 15.0 18.0 0.00 0.00 0.00 86 1010.3
20181211045026 38 292 15.0 21.0 0.00 0.00 0.00 86 1010.1
20181211044026 38 292 15.0 21.0 0.00 0.00 0.00 86 1010.2
20181211043026 38 292 15.0 21.0 0.00 0.00 0.00 86 1010.0
20181211042026 38 292 16.0 23.0 0.00 0.00 0.00 86 1010.0
20181211041026 38 292 15.0 22.0 0.00 0.00 0.00 86 1009.7
20181211040026 38 292 15.0 22.0 0.00 0.00 0.00 86 1009.7
20181211035026 38 292 17.0 24.0 0.00 0.00 0.00 86 1009.6
20181211034026 38 292 17.0 23.0 0.00 0.00 0.00 86 1009.5
20181211033026 38 292 18.0 23.0 0.00 0.00 0.00 86 1009.4
20181211032026 38 292 16.0 23.0 0.00 0.00 0.00 87 1009.3
20181211031027 38 292 17.0 24.0 0.00 0.00 0.00 87 1009.1
20181211030030 38 292 18.0 24.0 0.00 0.00 0.00 87 1009.0
20181211025026 38 292 17.0 23.0 0.00 0.00 0.00 88 1009.0
20181211024026 38 292 17.0 26.0 0.00 0.00 0.00 88 1008.9
20181211023025 38 292 16.0 22.0 0.00 0.00 0.00 88 1008.9
20181211022026 38 292 16.0 20.0 0.00 0.00 0.00 88 1009.0
20181211021026 38 292 16.0 22.0 0.00 0.00 0.00 89 1009.0
20181211020026 38 292 15.0 20.0 0.00 0.00 0.00 89 1009.0
20181211015036 38 292 16.0 23.0 0.00 0.00 0.00 89 1009.0
20181211014026 38 292 16.0 21.0 0.00 0.00 0.00 89 1009.0
20181211013025 38 292 14.0 20.0 0.00 0.00 0.00 89 1009.0
20181211012025 38 292 14.0 18.0 0.00 0.00 0.00 90 1008.9
20181211011026 38 292 15.0 22.0 0.00 0.00 0.00 90 1008.9
20181211010026 37 292 14.0 21.0 0.00 0.00 0.00 91 1008.7
20181211005025 37 292 14.0 19.0 0.00 0.00 0.00 90 1008.7
20181211004026 38 292 16.0 23.0 0.00 0.00 0.00 90 1008.8
20181211003025 38 292 16.0 23.0 0.00 0.00 0.00 91 1008.7
20181211002026 37 292 13.0 20.0 0.00 0.00 0.00 91 1008.7
20181211001025 37 292 14.0 19.0 0.00 0.00 0.00 91 1008.6
20181211000025 38 292 12.0 18.0 0.00 0.00 0.00 90 1008.5
20181210235025 38 292 14.0 19.0 0.00 0.00 0.00 90 1008.4
20181210234025 38 292 15.0 19.0 0.00 0.00 0.00 90 1008.3
20181210233025 38 292 15.0 20.0 0.00 0.00 0.00 91 1008.4
20181210232031 38 292 12.0 16.0 0.00 0.00 0.00 91 1008.4
20181210231025 38 292 13.0 19.0 0.00 0.00 0.00 91 1008.2
20181210230025 38 270 13.0 19.0 0.00 0.00 0.00 91 1008.1
20181210225025 38 270 16.0 23.0 0.00 0.00 0.00 91 1008.2
20181210224025 38 292 15.0 21.0 0.00 0.00 0.00 91 1008.3
20181210223025 38 292 13.0 18.0 0.00 0.00 0.00 91 1008.1
20181210222025 38 292 14.0 19.0 0.00 0.00 0.00 92 1007.9
20181210221025 38 270 12.0 17.0 0.00 0.00 0.00 92 1007.9
20181210220025 37 270 12.0 16.0 0.00 0.00 0.00 92 1007.9
20181210215027 37 292 11.0 16.0 0.00 0.00 0.00 92 1008.0
20181210214026 37 292 13.0 18.0 0.00 0.00 0.00 92 1007.9
20181210213026 37 270 13.0 19.0 0.00 0.00 0.00 93 1007.8
20181210212026 37 270 13.0 19.0 0.00 0.00 0.00 93 1007.8
20181210211027 37 292 12.0 16.0 0.00 0.00 0.00 92 1007.9
20181210210027 37 270 13.0 18.0 0.00 0.00 0.00 92 1007.7
20181210205026 37 270 13.0 18.0 0.00 0.00 0.00 92 1007.7
20181210204026 37 270 13.0 19.0 0.00 0.00 0.00 92 1007.7
20181210203026 37 292 11.0 15.0 0.00 0.00 0.00 92 1007.6
20181210202026 37 270 13.0 19.0 0.00 0.00 0.00 92 1007.4
20181210201027 37 270 12.0 15.0 0.00 0.00 0.00 91 1007.4
20181210200027 38 270 12.0 16.0 0.00 0.00 0.00 91 1007.5
20181210195026 38 270 13.0 18.0 0.00 0.00 0.00 91 1007.2
20181210194026 38 270 13.0 18.0 0.00 0.00 0.00 91 1007.2
20181210193026 38 270 12.0 16.0 0.00 0.00 0.00 91 1007.2
20181210192026 38 270 12.0 21.0 0.00 0.00 0.00 91 1007.1
20181210191026 38 292 13.0 18.0 0.00 0.00 0.00 92 1007.0
20181210190026 37 292 11.0 15.0 0.00 0.00 0.00 91 1006.9
20181210185031 37 270 11.0 17.0 0.00 0.00 0.00 90 1006.7
20181210184026 38 270 13.0 19.0 0.00 0.00 0.00 90 1006.6
20181210183026 39 270 13.0 17.0 0.00 0.00 0.00 90 1006.6
20181210182026 39 270 14.0 18.0 0.00 0.00 0.00 91 1006.6
20181210181026 39 270 15.0 20.0 0.00 0.00 0.00 91 1006.6
20181210180026 39 270 13.0 18.0 0.00 0.00 0.00 91 1006.7
20181210175026 38 270 15.0 25.0 0.00 0.00 0.00 92 1006.7
20181210174026 38 270 15.0 19.0 0.00 0.00 0.00 92 1006.6
20181210173026 38 270 13.0 18.0 0.00 0.00 0.00 92 1006.5
20181210172026 38 270 13.0 17.0 0.00 0.00 0.00 92 1006.4
20181210171026 38 270 14.0 20.0 0.00 0.00 0.00 92 1006.5
20181210170025 38 247 14.0 19.0 0.00 0.00 0.00 93 1006.4
20181210165026 38 270 15.0 19.0 0.00 0.00 0.00 93 1006.4
20181210164026 38 247 16.0 22.0 0.00 0.00 0.00 93 1006.4
20181210163025 37 270 13.0 18.0 0.00 0.00 0.00 93 1006.4
20181210162026 38 247 13.0 20.0 0.00 0.00 0.00 93 1006.3
20181210161026 38 270 13.0 17.0 0.00 0.00 0.00 93 1006.4
20181210160026 38 247 17.0 30.0 0.00 0.00 0.00 93 1006.4
20181210155026 38 270 13.0 18.0 0.00 0.00 0.00 93 1006.6
20181210154026 38 270 15.0 23.0 0.00 0.00 0.00 92 1006.6
20181210153026 38 270 14.0 18.0 0.00 0.00 0.00 92 1006.6
20181210152026 38 247 15.0 20.0 0.00 0.00 0.00 92 1006.6